sensor_id;sensor_type;location;lat;lon;timestamp;temperature;humidity
38131;DHT22;23947;51.894;4.622;2023-10-08T00:00:48;18.20;91.10
38131;DHT22;23947;51.894;4.622;2023-10-08T00:03:19;18.30;86.20
38131;DHT22;23947;51.894;4.622;2023-10-08T00:05:46;18.30;75.40
38131;DHT22;23947;51.894;4.622;2023-10-08T00:08:12;18.30;74.90
38131;DHT22;23947;51.894;4.622;2023-10-08T00:10:39;18.30;74.40
38131;DHT22;23947;51.894;4.622;2023-10-08T00:13:09;18.30;75.50
38131;DHT22;23947;51.894;4.622;2023-10-08T00:15:39;18.30;75.20
38131;DHT22;23947;51.894;4.622;2023-10-08T00:18:15;18.30;73.70
38131;DHT22;23947;51.894;4.622;2023-10-08T00:20:41;18.30;81.80
38131;DHT22;23947;51.894;4.622;2023-10-08T00:23:22;18.30;73.10
38131;DHT22;23947;51.894;4.622;2023-10-08T00:25:51;18.20;75.00
38131;DHT22;23947;51.894;4.622;2023-10-08T00:28:17;18.20;82.90
38131;DHT22;23947;51.894;4.622;2023-10-08T00:30:43;18.30;82.80
38131;DHT22;23947;51.894;4.622;2023-10-08T00:33:09;18.20;82.00
38131;DHT22;23947;51.894;4.622;2023-10-08T00:35:38;18.20;74.20
38131;DHT22;23947;51.894;4.622;2023-10-08T00:38:04;18.20;83.20
38131;DHT22;23947;51.894;4.622;2023-10-08T00:40:40;18.10;76.70
38131;DHT22;23947;51.894;4.622;2023-10-08T00:43:05;18.00;78.30
38131;DHT22;23947;51.894;4.622;2023-10-08T00:45:39;18.00;85.80
38131;DHT22;23947;51.894;4.622;2023-10-08T00:48:10;18.00;78.70
38131;DHT22;23947;51.894;4.622;2023-10-08T00:50:42;18.00;85.60
38131;DHT22;23947;51.894;4.622;2023-10-08T00:53:11;18.00;78.80
38131;DHT22;23947;51.894;4.622;2023-10-08T00:55:48;18.00;87.40
38131;DHT22;23947;51.894;4.622;2023-10-08T00:58:25;17.90;80.60
38131;DHT22;23947;51.894;4.622;2023-10-08T01:00:53;17.90;80.20
38131;DHT22;23947;51.894;4.622;2023-10-08T01:03:26;17.90;80.90
38131;DHT22;23947;51.894;4.622;2023-10-08T01:05:56;17.80;83.90
38131;DHT22;23947;51.894;4.622;2023-10-08T01:08:22;17.80;86.10
38131;DHT22;23947;51.894;4.622;2023-10-08T01:11:17;17.70;89.10
38131;DHT22;23947;51.894;4.622;2023-10-08T01:13:42;17.60;94.00
38131;DHT22;23947;51.894;4.622;2023-10-08T01:16:12;17.60;94.70
38131;DHT22;23947;51.894;4.622;2023-10-08T01:18:38;17.60;97.60
38131;DHT22;23947;51.894;4.622;2023-10-08T01:21:08;17.50;99.20
38131;DHT22;23947;51.894;4.622;2023-10-08T01:23:44;17.50;99.90
38131;DHT22;23947;51.894;4.622;2023-10-08T01:26:12;17.50;99.90
38131;DHT22;23947;51.894;4.622;2023-10-08T01:28:38;17.40;99.90
38131;DHT22;23947;51.894;4.622;2023-10-08T01:31:04;17.50;99.90
38131;DHT22;23947;51.894;4.622;2023-10-08T01:33:30;17.40;99.90
38131;DHT22;23947;51.894;4.622;2023-10-08T01:36:04;17.30;99.90
38131;DHT22;23947;51.894;4.622;2023-10-08T01:38:31;17.40;99.90
38131;DHT22;23947;51.894;4.622;2023-10-08T01:41:00;17.30;99.90
38131;DHT22;23947;51.894;4.622;2023-10-08T01:43:31;17.30;99.90
38131;DHT22;23947;51.894;4.622;2023-10-08T01:45:56;17.30;99.90
38131;DHT22;23947;51.894;4.622;2023-10-08T01:48:22;17.30;99.90
38131;DHT22;23947;51.894;4.622;2023-10-08T01:50:59;17.30;99.90
38131;DHT22;23947;51.894;4.622;2023-10-08T01:53:27;17.20;99.90
38131;DHT22;23947;51.894;4.622;2023-10-08T01:55:53;17.30;99.90
38131;DHT22;23947;51.894;4.622;2023-10-08T01:58:19;17.30;99.90
38131;DHT22;23947;51.894;4.622;2023-10-08T02:00:46;17.30;99.90
38131;DHT22;23947;51.894;4.622;2023-10-08T02:03:16;17.20;99.90
38131;DHT22;23947;51.894;4.622;2023-10-08T02:05:44;17.20;99.90
38131;DHT22;23947;51.894;4.622;2023-10-08T02:08:10;17.20;99.90
38131;DHT22;23947;51.894;4.622;2023-10-08T02:10:41;17.20;99.90
38131;DHT22;23947;51.894;4.622;2023-10-08T02:13:08;17.20;99.90
38131;DHT22;23947;51.894;4.622;2023-10-08T02:15:42;17.20;99.90
38131;DHT22;23947;51.894;4.622;2023-10-08T02:18:08;17.20;99.90
38131;DHT22;23947;51.894;4.622;2023-10-08T02:20:34;17.20;99.90
38131;DHT22;23947;51.894;4.622;2023-10-08T02:22:59;17.30;99.90
38131;DHT22;23947;51.894;4.622;2023-10-08T02:25:26;17.30;99.90
38131;DHT22;23947;51.894;4.622;2023-10-08T02:27:51;17.30;99.90
38131;DHT22;23947;51.894;4.622;2023-10-08T02:30:17;17.30;99.90
38131;DHT22;23947;51.894;4.622;2023-10-08T02:32:44;17.30;99.90
38131;DHT22;23947;51.894;4.622;2023-10-08T02:35:10;17.40;99.90
38131;DHT22;23947;51.894;4.622;2023-10-08T02:37:39;17.40;99.90
38131;DHT22;23947;51.894;4.622;2023-10-08T02:40:09;17.40;99.90
38131;DHT22;23947;51.894;4.622;2023-10-08T02:42:54;17.40;99.90
38131;DHT22;23947;51.894;4.622;2023-10-08T02:45:27;17.50;99.90
38131;DHT22;23947;51.894;4.622;2023-10-08T02:47:53;17.50;99.90
38131;DHT22;23947;51.894;4.622;2023-10-08T02:50:20;17.50;99.90
38131;DHT22;23947;51.894;4.622;2023-10-08T02:52:50;17.50;99.90
38131;DHT22;23947;51.894;4.622;2023-10-08T02:55:18;17.50;99.90
38131;DHT22;23947;51.894;4.622;2023-10-08T02:57:54;17.50;99.90
38131;DHT22;23947;51.894;4.622;2023-10-08T03:00:19;17.50;99.90
38131;DHT22;23947;51.894;4.622;2023-10-08T03:02:46;17.50;99.90
38131;DHT22;23947;51.894;4.622;2023-10-08T03:05:12;17.50;99.90
38131;DHT22;23947;51.894;4.622;2023-10-08T03:07:43;17.50;99.90
38131;DHT22;23947;51.894;4.622;2023-10-08T03:10:09;17.50;99.90
38131;DHT22;23947;51.894;4.622;2023-10-08T03:12:47;17.50;99.90
38131;DHT22;23947;51.894;4.622;2023-10-08T03:15:13;17.50;99.90
38131;DHT22;23947;51.894;4.622;2023-10-08T03:17:43;17.50;99.90
38131;DHT22;23947;51.894;4.622;2023-10-08T03:20:18;17.50;99.90
38131;DHT22;23947;51.894;4.622;2023-10-08T03:23:02;17.50;99.90
38131;DHT22;23947;51.894;4.622;2023-10-08T03:25:31;17.40;99.90
38131;DHT22;23947;51.894;4.622;2023-10-08T03:27:59;17.40;99.90
38131;DHT22;23947;51.894;4.622;2023-10-08T03:30:24;17.40;99.90
38131;DHT22;23947;51.894;4.622;2023-10-08T03:32:52;17.40;99.90
38131;DHT22;23947;51.894;4.622;2023-10-08T03:35:21;17.30;99.90
38131;DHT22;23947;51.894;4.622;2023-10-08T03:37:53;17.30;99.90
38131;DHT22;23947;51.894;4.622;2023-10-08T03:40:20;17.30;99.90
38131;DHT22;23947;51.894;4.622;2023-10-08T03:43:07;17.30;99.90
38131;DHT22;23947;51.894;4.622;2023-10-08T03:45:41;17.20;99.90
38131;DHT22;23947;51.894;4.622;2023-10-08T03:48:25;17.20;99.90
38131;DHT22;23947;51.894;4.622;2023-10-08T03:50:51;17.20;99.90
38131;DHT22;23947;51.894;4.622;2023-10-08T03:53:32;17.20;99.90
38131;DHT22;23947;51.894;4.622;2023-10-08T03:56:02;17.10;99.90
38131;DHT22;23947;51.894;4.622;2023-10-08T03:58:32;17.10;99.90
38131;DHT22;23947;51.894;4.622;2023-10-08T04:01:00;17.00;99.90
38131;DHT22;23947;51.894;4.622;2023-10-08T04:03:36;17.00;99.90
38131;DHT22;23947;51.894;4.622;2023-10-08T04:06:16;17.00;99.90
38131;DHT22;23947;51.894;4.622;2023-10-08T04:08:47;16.90;99.90
38131;DHT22;23947;51.894;4.622;2023-10-08T04:11:27;16.90;99.90
38131;DHT22;23947;51.894;4.622;2023-10-08T04:14:02;16.90;99.90
38131;DHT22;23947;51.894;4.622;2023-10-08T04:16:32;16.80;99.90
38131;DHT22;23947;51.894;4.622;2023-10-08T04:19:05;16.80;99.90
38131;DHT22;23947;51.894;4.622;2023-10-08T04:21:31;16.80;99.90
38131;DHT22;23947;51.894;4.622;2023-10-08T04:24:00;16.80;99.90
38131;DHT22;23947;51.894;4.622;2023-10-08T04:26:36;16.80;99.90
38131;DHT22;23947;51.894;4.622;2023-10-08T04:29:05;16.70;99.90
38131;DHT22;23947;51.894;4.622;2023-10-08T04:31:34;16.70;99.90
38131;DHT22;23947;51.894;4.622;2023-10-08T04:34:04;16.70;99.90
38131;DHT22;23947;51.894;4.622;2023-10-08T04:36:35;16.60;99.90
38131;DHT22;23947;51.894;4.622;2023-10-08T04:39:04;16.70;99.90
38131;DHT22;23947;51.894;4.622;2023-10-08T04:41:40;16.60;99.90
38131;DHT22;23947;51.894;4.622;2023-10-08T04:44:11;16.60;99.90
38131;DHT22;23947;51.894;4.622;2023-10-08T04:46:44;16.60;99.90
38131;DHT22;23947;51.894;4.622;2023-10-08T04:49:17;16.60;99.90
38131;DHT22;23947;51.894;4.622;2023-10-08T04:52:20;16.60;99.90
38131;DHT22;23947;51.894;4.622;2023-10-08T04:54:50;16.60;99.90
38131;DHT22;23947;51.894;4.622;2023-10-08T04:57:18;16.50;99.90
38131;DHT22;23947;51.894;4.622;2023-10-08T04:59:44;16.50;99.90
38131;DHT22;23947;51.894;4.622;2023-10-08T05:02:12;16.50;99.90
38131;DHT22;23947;51.894;4.622;2023-10-08T05:04:38;16.50;99.90
38131;DHT22;23947;51.894;4.622;2023-10-08T05:07:13;16.50;99.90
38131;DHT22;23947;51.894;4.622;2023-10-08T05:09:57;16.50;99.90
38131;DHT22;23947;51.894;4.622;2023-10-08T05:12:29;16.50;99.90
38131;DHT22;23947;51.894;4.622;2023-10-08T05:15:11;16.50;99.90
38131;DHT22;23947;51.894;4.622;2023-10-08T05:17:46;16.50;99.90
38131;DHT22;23947;51.894;4.622;2023-10-08T05:20:20;16.60;99.90
38131;DHT22;23947;51.894;4.622;2023-10-08T05:23:12;16.50;99.90
38131;DHT22;23947;51.894;4.622;2023-10-08T05:25:52;16.50;99.90
38131;DHT22;23947;51.894;4.622;2023-10-08T05:28:44;16.60;99.90
38131;DHT22;23947;51.894;4.622;2023-10-08T05:31:48;16.60;99.90
38131;DHT22;23947;51.894;4.622;2023-10-08T05:34:18;16.60;99.90
38131;DHT22;23947;51.894;4.622;2023-10-08T05:36:54;16.50;99.90
38131;DHT22;23947;51.894;4.622;2023-10-08T05:39:25;16.50;99.90
38131;DHT22;23947;51.894;4.622;2023-10-08T05:42:08;16.50;99.90
38131;DHT22;23947;51.894;4.622;2023-10-08T05:44:46;16.50;99.90
38131;DHT22;23947;51.894;4.622;2023-10-08T05:47:16;16.40;99.90
38131;DHT22;23947;51.894;4.622;2023-10-08T05:49:53;16.40;99.90
38131;DHT22;23947;51.894;4.622;2023-10-08T05:52:35;16.40;99.90
38131;DHT22;23947;51.894;4.622;2023-10-08T05:55:17;16.30;99.90
38131;DHT22;23947;51.894;4.622;2023-10-08T05:57:59;16.30;99.90
38131;DHT22;23947;51.894;4.622;2023-10-08T06:00:43;16.30;99.90
38131;DHT22;23947;51.894;4.622;2023-10-08T06:03:32;16.30;99.90
38131;DHT22;23947;51.894;4.622;2023-10-08T06:06:03;16.20;99.90
38131;DHT22;23947;51.894;4.622;2023-10-08T06:08:48;16.20;99.90
38131;DHT22;23947;51.894;4.622;2023-10-08T06:11:21;16.20;99.90
38131;DHT22;23947;51.894;4.622;2023-10-08T06:14:05;16.20;99.90
38131;DHT22;23947;51.894;4.622;2023-10-08T06:16:54;16.30;99.90
38131;DHT22;23947;51.894;4.622;2023-10-08T06:19:39;16.30;99.90
38131;DHT22;23947;51.894;4.622;2023-10-08T06:22:05;16.30;99.90
38131;DHT22;23947;51.894;4.622;2023-10-08T06:24:33;16.30;99.90
38131;DHT22;23947;51.894;4.622;2023-10-08T06:27:00;16.30;99.90
38131;DHT22;23947;51.894;4.622;2023-10-08T06:29:30;16.30;99.90
38131;DHT22;23947;51.894;4.622;2023-10-08T06:39:08;16.40;99.90
38131;DHT22;23947;51.894;4.622;2023-10-08T06:41:39;16.40;99.90
38131;DHT22;23947;51.894;4.622;2023-10-08T06:44:16;16.40;99.90
38131;DHT22;23947;51.894;4.622;2023-10-08T06:46:56;16.50;99.90
38131;DHT22;23947;51.894;4.622;2023-10-08T06:49:32;16.50;99.90
38131;DHT22;23947;51.894;4.622;2023-10-08T06:51:59;16.40;99.90
38131;DHT22;23947;51.894;4.622;2023-10-08T06:54:30;16.40;99.90
38131;DHT22;23947;51.894;4.622;2023-10-08T06:56:57;16.40;99.90
38131;DHT22;23947;51.894;4.622;2023-10-08T06:59:41;16.40;99.90
38131;DHT22;23947;51.894;4.622;2023-10-08T07:02:19;16.30;99.90
38131;DHT22;23947;51.894;4.622;2023-10-08T07:04:48;16.30;99.90
38131;DHT22;23947;51.894;4.622;2023-10-08T07:07:16;16.30;99.90
38131;DHT22;23947;51.894;4.622;2023-10-08T07:09:44;16.30;99.90
38131;DHT22;23947;51.894;4.622;2023-10-08T07:12:10;16.30;99.90
38131;DHT22;23947;51.894;4.622;2023-10-08T07:14:48;16.30;99.90
38131;DHT22;23947;51.894;4.622;2023-10-08T07:17:38;16.30;99.90
38131;DHT22;23947;51.894;4.622;2023-10-08T07:20:14;16.30;99.90
38131;DHT22;23947;51.894;4.622;2023-10-08T07:22:40;16.40;99.90
38131;DHT22;23947;51.894;4.622;2023-10-08T07:25:09;16.40;99.90
38131;DHT22;23947;51.894;4.622;2023-10-08T07:27:34;16.50;99.90
38131;DHT22;23947;51.894;4.622;2023-10-08T07:30:23;16.40;99.90
38131;DHT22;23947;51.894;4.622;2023-10-08T07:33:06;16.40;99.90
38131;DHT22;23947;51.894;4.622;2023-10-08T07:35:42;16.40;99.90
38131;DHT22;23947;51.894;4.622;2023-10-08T07:38:26;16.30;99.90
38131;DHT22;23947;51.894;4.622;2023-10-08T07:40:55;16.30;99.90
38131;DHT22;23947;51.894;4.622;2023-10-08T07:43:26;16.20;99.90
38131;DHT22;23947;51.894;4.622;2023-10-08T07:45:54;16.20;99.90
38131;DHT22;23947;51.894;4.622;2023-10-08T07:48:23;16.10;99.90
38131;DHT22;23947;51.894;4.622;2023-10-08T07:50:56;16.10;99.90
38131;DHT22;23947;51.894;4.622;2023-10-08T07:53:25;16.00;99.90
38131;DHT22;23947;51.894;4.622;2023-10-08T07:56:06;16.00;99.90
38131;DHT22;23947;51.894;4.622;2023-10-08T07:58:33;15.90;99.90
38131;DHT22;23947;51.894;4.622;2023-10-08T08:01:06;15.90;99.90
38131;DHT22;23947;51.894;4.622;2023-10-08T08:04:16;15.90;99.90
38131;DHT22;23947;51.894;4.622;2023-10-08T08:07:08;15.90;99.90
38131;DHT22;23947;51.894;4.622;2023-10-08T08:09:52;16.00;99.90
38131;DHT22;23947;51.894;4.622;2023-10-08T08:12:30;15.90;99.90
38131;DHT22;23947;51.894;4.622;2023-10-08T08:14:58;16.00;99.90
38131;DHT22;23947;51.894;4.622;2023-10-08T08:17:24;15.90;99.90
38131;DHT22;23947;51.894;4.622;2023-10-08T08:23:09;16.00;99.90
38131;DHT22;23947;51.894;4.622;2023-10-08T08:25:44;16.00;99.90
38131;DHT22;23947;51.894;4.622;2023-10-08T08:29:17;16.00;99.90
38131;DHT22;23947;51.894;4.622;2023-10-08T08:31:29;16.00;99.90
38131;DHT22;23947;51.894;4.622;2023-10-08T08:34:03;16.00;99.90
38131;DHT22;23947;51.894;4.622;2023-10-08T08:36:43;16.00;99.90
38131;DHT22;23947;51.894;4.622;2023-10-08T08:39:13;16.00;99.90
38131;DHT22;23947;51.894;4.622;2023-10-08T08:41:53;16.10;99.90
38131;DHT22;23947;51.894;4.622;2023-10-08T08:44:20;16.10;99.90
38131;DHT22;23947;51.894;4.622;2023-10-08T08:46:50;16.10;99.90
38131;DHT22;23947;51.894;4.622;2023-10-08T08:49:19;16.20;99.90
38131;DHT22;23947;51.894;4.622;2023-10-08T08:51:45;16.20;99.90
38131;DHT22;23947;51.894;4.622;2023-10-08T08:54:14;16.30;99.90
38131;DHT22;23947;51.894;4.622;2023-10-08T08:56:43;16.30;99.90
38131;DHT22;23947;51.894;4.622;2023-10-08T08:59:38;16.40;99.90
38131;DHT22;23947;51.894;4.622;2023-10-08T09:02:11;16.50;99.90
38131;DHT22;23947;51.894;4.622;2023-10-08T09:08:10;16.50;99.90
38131;DHT22;23947;51.894;4.622;2023-10-08T09:10:37;16.50;99.90
38131;DHT22;23947;51.894;4.622;2023-10-08T09:13:21;16.50;94.50
38131;DHT22;23947;51.894;4.622;2023-10-08T09:15:51;16.60;88.50
38131;DHT22;23947;51.894;4.622;2023-10-08T09:25:01;16.50;51.90
38131;DHT22;23947;51.894;4.622;2023-10-08T09:27:33;16.50;57.70
38131;DHT22;23947;51.894;4.622;2023-10-08T09:30:05;16.50;52.60
38131;DHT22;23947;51.894;4.622;2023-10-08T09:32:57;16.50;60.70
38131;DHT22;23947;51.894;4.622;2023-10-08T09:35:23;16.50;58.00
38131;DHT22;23947;51.894;4.622;2023-10-08T09:38:06;16.60;57.60
38131;DHT22;23947;51.894;4.622;2023-10-08T09:40:42;16.60;53.90
38131;DHT22;23947;51.894;4.622;2023-10-08T09:43:13;16.60;41.50
38131;DHT22;23947;51.894;4.622;2023-10-08T09:45:44;16.70;41.00
38131;DHT22;23947;51.894;4.622;2023-10-08T09:48:15;16.70;41.00
38131;DHT22;23947;51.894;4.622;2023-10-08T09:50:42;16.80;33.50
38131;DHT22;23947;51.894;4.622;2023-10-08T09:53:12;16.80;32.40
38131;DHT22;23947;51.894;4.622;2023-10-08T09:55:54;16.90;35.20
38131;DHT22;23947;51.894;4.622;2023-10-08T10:01:37;16.90;26.50
38131;DHT22;23947;51.894;4.622;2023-10-08T10:04:42;16.90;29.50
38131;DHT22;23947;51.894;4.622;2023-10-08T10:07:42;17.00;35.30
38131;DHT22;23947;51.894;4.622;2023-10-08T10:10:29;17.10;33.00
38131;DHT22;23947;51.894;4.622;2023-10-08T10:13:27;17.20;22.60
38131;DHT22;23947;51.894;4.622;2023-10-08T10:15:58;17.20;19.60
38131;DHT22;23947;51.894;4.622;2023-10-08T10:18:33;17.30;26.80
38131;DHT22;23947;51.894;4.622;2023-10-08T10:24:35;17.30;18.20
38131;DHT22;23947;51.894;4.622;2023-10-08T10:27:15;17.30;16.80
38131;DHT22;23947;51.894;4.622;2023-10-08T10:29:50;17.30;18.50
38131;DHT22;23947;51.894;4.622;2023-10-08T10:32:20;17.30;18.30
38131;DHT22;23947;51.894;4.622;2023-10-08T10:35:28;17.40;19.80
38131;DHT22;23947;51.894;4.622;2023-10-08T10:37:54;17.40;19.50
38131;DHT22;23947;51.894;4.622;2023-10-08T10:40:26;17.40;20.00
38131;DHT22;23947;51.894;4.622;2023-10-08T10:43:08;17.40;17.70
38131;DHT22;23947;51.894;4.622;2023-10-08T10:45:41;17.30;18.70
38131;DHT22;23947;51.894;4.622;2023-10-08T10:48:24;17.40;21.10
38131;DHT22;23947;51.894;4.622;2023-10-08T10:51:00;17.40;22.30
38131;DHT22;23947;51.894;4.622;2023-10-08T10:53:40;17.40;25.20
38131;DHT22;23947;51.894;4.622;2023-10-08T10:56:32;17.50;19.50
38131;DHT22;23947;51.894;4.622;2023-10-08T10:59:23;17.50;18.30
38131;DHT22;23947;51.894;4.622;2023-10-08T11:01:53;17.50;23.20
38131;DHT22;23947;51.894;4.622;2023-10-08T11:04:35;17.50;18.60
38131;DHT22;23947;51.894;4.622;2023-10-08T11:07:55;17.60;17.10
38131;DHT22;23947;51.894;4.622;2023-10-08T11:10:37;17.60;18.60
38131;DHT22;23947;51.894;4.622;2023-10-08T11:13:05;17.70;19.80
38131;DHT22;23947;51.894;4.622;2023-10-08T11:15:40;17.70;18.30
38131;DHT22;23947;51.894;4.622;2023-10-08T11:18:10;17.80;15.40
38131;DHT22;23947;51.894;4.622;2023-10-08T11:20:50;17.90;14.80
38131;DHT22;23947;51.894;4.622;2023-10-08T11:23:48;17.90;13.10
38131;DHT22;23947;51.894;4.622;2023-10-08T11:26:25;18.00;12.80
38131;DHT22;23947;51.894;4.622;2023-10-08T11:29:06;18.10;6.80
38131;DHT22;23947;51.894;4.622;2023-10-08T11:31:45;18.10;4.40
38131;DHT22;23947;51.894;4.622;2023-10-08T11:34:13;18.20;4.10
38131;DHT22;23947;51.894;4.622;2023-10-08T11:36:39;18.30;1.90
38131;DHT22;23947;51.894;4.622;2023-10-08T11:39:21;18.20;1.00
38131;DHT22;23947;51.894;4.622;2023-10-08T11:42:01;18.30;1.00
38131;DHT22;23947;51.894;4.622;2023-10-08T11:44:32;18.30;1.00
38131;DHT22;23947;51.894;4.622;2023-10-08T11:47:05;18.30;1.00
38131;DHT22;23947;51.894;4.622;2023-10-08T11:50:07;18.20;1.00
38131;DHT22;23947;51.894;4.622;2023-10-08T11:52:39;18.20;1.00
38131;DHT22;23947;51.894;4.622;2023-10-08T11:55:11;18.20;1.00
38131;DHT22;23947;51.894;4.622;2023-10-08T11:57:58;18.30;1.10
38131;DHT22;23947;51.894;4.622;2023-10-08T12:00:25;18.30;1.00
38131;DHT22;23947;51.894;4.622;2023-10-08T12:02:52;18.30;1.00
38131;DHT22;23947;51.894;4.622;2023-10-08T12:05:22;18.40;1.00
38131;DHT22;23947;51.894;4.622;2023-10-08T12:08:02;18.40;1.00
38131;DHT22;23947;51.894;4.622;2023-10-08T12:10:33;18.40;1.00
38131;DHT22;23947;51.894;4.622;2023-10-08T12:13:00;18.40;1.00
38131;DHT22;23947;51.894;4.622;2023-10-08T12:15:26;18.50;1.00
38131;DHT22;23947;51.894;4.622;2023-10-08T12:18:06;18.50;1.00
38131;DHT22;23947;51.894;4.622;2023-10-08T12:20:50;18.50;1.00
38131;DHT22;23947;51.894;4.622;2023-10-08T12:23:16;18.60;1.00
38131;DHT22;23947;51.894;4.622;2023-10-08T12:25:57;18.60;1.00
38131;DHT22;23947;51.894;4.622;2023-10-08T12:29:32;18.60;1.00
38131;DHT22;23947;51.894;4.622;2023-10-08T12:31:33;18.70;1.00
38131;DHT22;23947;51.894;4.622;2023-10-08T12:33:59;18.70;1.00
38131;DHT22;23947;51.894;4.622;2023-10-08T12:36:28;18.80;1.00
38131;DHT22;23947;51.894;4.622;2023-10-08T12:38:58;18.90;1.00
38131;DHT22;23947;51.894;4.622;2023-10-08T12:41:25;19.00;1.00
38131;DHT22;23947;51.894;4.622;2023-10-08T12:43:53;19.10;1.00
38131;DHT22;23947;51.894;4.622;2023-10-08T12:46:19;19.10;1.00
38131;DHT22;23947;51.894;4.622;2023-10-08T12:48:50;19.10;1.00
38131;DHT22;23947;51.894;4.622;2023-10-08T12:51:24;19.10;1.00
38131;DHT22;23947;51.894;4.622;2023-10-08T12:53:51;19.20;1.00
38131;DHT22;23947;51.894;4.622;2023-10-08T12:56:24;19.30;1.00
38131;DHT22;23947;51.894;4.622;2023-10-08T13:06:22;19.30;1.00
38131;DHT22;23947;51.894;4.622;2023-10-08T13:13:10;19.30;1.00
38131;DHT22;23947;51.894;4.622;2023-10-08T13:23:05;19.20;1.00
38131;DHT22;23947;51.894;4.622;2023-10-08T13:28:29;19.30;1.00
38131;DHT22;23947;51.894;4.622;2023-10-08T13:31:05;19.20;1.00
38131;DHT22;23947;51.894;4.622;2023-10-08T13:33:41;19.30;1.00
38131;DHT22;23947;51.894;4.622;2023-10-08T13:36:19;19.20;1.00
38131;DHT22;23947;51.894;4.622;2023-10-08T13:38:45;19.20;1.00
38131;DHT22;23947;51.894;4.622;2023-10-08T13:41:12;19.30;1.00
38131;DHT22;23947;51.894;4.622;2023-10-08T13:43:42;19.30;1.00
38131;DHT22;23947;51.894;4.622;2023-10-08T13:50:00;19.30;1.00
38131;DHT22;23947;51.894;4.622;2023-10-08T13:52:28;19.30;1.00
38131;DHT22;23947;51.894;4.622;2023-10-08T13:54:57;19.40;1.00
38131;DHT22;23947;51.894;4.622;2023-10-08T13:57:46;19.50;1.00
38131;DHT22;23947;51.894;4.622;2023-10-08T14:00:26;19.60;1.00
38131;DHT22;23947;51.894;4.622;2023-10-08T14:02:54;19.70;1.00
38131;DHT22;23947;51.894;4.622;2023-10-08T14:05:44;19.70;1.00
38131;DHT22;23947;51.894;4.622;2023-10-08T14:08:24;19.80;1.00
38131;DHT22;23947;51.894;4.622;2023-10-08T14:14:34;19.90;1.00
38131;DHT22;23947;51.894;4.622;2023-10-08T14:20:44;20.30;1.00
38131;DHT22;23947;51.894;4.622;2023-10-08T14:26:44;20.30;1.00
38131;DHT22;23947;51.894;4.622;2023-10-08T14:29:43;20.10;1.00
38131;DHT22;23947;51.894;4.622;2023-10-08T14:32:39;20.00;1.00
38131;DHT22;23947;51.894;4.622;2023-10-08T14:35:14;20.00;1.00
38131;DHT22;23947;51.894;4.622;2023-10-08T14:37:59;20.00;1.00
38131;DHT22;23947;51.894;4.622;2023-10-08T14:40:47;20.00;1.00
38131;DHT22;23947;51.894;4.622;2023-10-08T14:50:57;20.00;1.00
38131;DHT22;23947;51.894;4.622;2023-10-08T14:53:25;20.10;1.00
38131;DHT22;23947;51.894;4.622;2023-10-08T14:59:32;20.00;1.00
38131;DHT22;23947;51.894;4.622;2023-10-08T15:08:41;19.90;1.00
38131;DHT22;23947;51.894;4.622;2023-10-08T15:11:18;19.80;1.00
38131;DHT22;23947;51.894;4.622;2023-10-08T15:13:43;19.80;1.00
38131;DHT22;23947;51.894;4.622;2023-10-08T15:16:12;19.70;1.00
38131;DHT22;23947;51.894;4.622;2023-10-08T15:18:39;19.70;1.00
38131;DHT22;23947;51.894;4.622;2023-10-08T15:21:34;19.60;1.00
38131;DHT22;23947;51.894;4.622;2023-10-08T15:24:26;19.50;1.00
38131;DHT22;23947;51.894;4.622;2023-10-08T15:26:57;19.50;1.00
38131;DHT22;23947;51.894;4.622;2023-10-08T15:29:45;19.50;1.00
38131;DHT22;23947;51.894;4.622;2023-10-08T15:32:13;19.50;1.00
38131;DHT22;23947;51.894;4.622;2023-10-08T15:35:09;19.40;1.00
38131;DHT22;23947;51.894;4.622;2023-10-08T15:41:57;19.30;1.00
38131;DHT22;23947;51.894;4.622;2023-10-08T15:47:55;19.10;1.00
38131;DHT22;23947;51.894;4.622;2023-10-08T16:01:03;18.90;4.60
38131;DHT22;23947;51.894;4.622;2023-10-08T16:03:46;18.90;8.00
38131;DHT22;23947;51.894;4.622;2023-10-08T16:06:12;18.80;9.80
38131;DHT22;23947;51.894;4.622;2023-10-08T16:08:38;18.80;11.40
38131;DHT22;23947;51.894;4.622;2023-10-08T16:14:30;18.70;12.90
38131;DHT22;23947;51.894;4.622;2023-10-08T16:17:20;18.70;13.80
38131;DHT22;23947;51.894;4.622;2023-10-08T16:19:53;18.70;13.10
38131;DHT22;23947;51.894;4.622;2023-10-08T16:22:18;18.70;12.20
38131;DHT22;23947;51.894;4.622;2023-10-08T16:24:44;18.50;11.10
38131;DHT22;23947;51.894;4.622;2023-10-08T16:27:10;18.60;12.00
38131;DHT22;23947;51.894;4.622;2023-10-08T16:29:41;18.40;13.00
38131;DHT22;23947;51.894;4.622;2023-10-08T16:32:07;18.40;14.30
38131;DHT22;23947;51.894;4.622;2023-10-08T16:34:33;18.60;36.90
38131;DHT22;23947;51.894;4.622;2023-10-08T16:37:02;18.50;24.70
38131;DHT22;23947;51.894;4.622;2023-10-08T16:39:30;18.40;20.60
38131;DHT22;23947;51.894;4.622;2023-10-08T16:41:57;18.30;15.50
38131;DHT22;23947;51.894;4.622;2023-10-08T16:44:52;18.20;14.60
38131;DHT22;23947;51.894;4.622;2023-10-08T16:47:32;18.20;15.70
38131;DHT22;23947;51.894;4.622;2023-10-08T16:50:02;18.10;17.00
38131;DHT22;23947;51.894;4.622;2023-10-08T16:52:28;18.00;18.20
38131;DHT22;23947;51.894;4.622;2023-10-08T16:54:54;17.90;18.30
38131;DHT22;23947;51.894;4.622;2023-10-08T16:57:21;17.90;19.80
38131;DHT22;23947;51.894;4.622;2023-10-08T16:59:47;17.80;20.70
38131;DHT22;23947;51.894;4.622;2023-10-08T17:02:13;17.80;23.60
38131;DHT22;23947;51.894;4.622;2023-10-08T17:04:39;17.80;22.80
38131;DHT22;23947;51.894;4.622;2023-10-08T17:07:05;17.70;24.50
38131;DHT22;23947;51.894;4.622;2023-10-08T17:09:31;17.70;26.70
38131;DHT22;23947;51.894;4.622;2023-10-08T17:11:57;17.60;29.30
38131;DHT22;23947;51.894;4.622;2023-10-08T17:14:23;17.60;31.00
38131;DHT22;23947;51.894;4.622;2023-10-08T17:16:49;17.60;32.60
38131;DHT22;23947;51.894;4.622;2023-10-08T17:19:14;17.50;33.50
38131;DHT22;23947;51.894;4.622;2023-10-08T17:21:44;17.50;34.20
38131;DHT22;23947;51.894;4.622;2023-10-08T17:24:14;17.50;35.60
38131;DHT22;23947;51.894;4.622;2023-10-08T17:26:40;17.50;43.40
38131;DHT22;23947;51.894;4.622;2023-10-08T17:29:07;17.40;38.40
38131;DHT22;23947;51.894;4.622;2023-10-08T17:31:34;17.40;39.20
38131;DHT22;23947;51.894;4.622;2023-10-08T17:34:01;17.40;39.90
38131;DHT22;23947;51.894;4.622;2023-10-08T17:36:30;17.40;41.10
38131;DHT22;23947;51.894;4.622;2023-10-08T17:38:59;17.30;41.50
38131;DHT22;23947;51.894;4.622;2023-10-08T17:41:28;17.30;42.20
38131;DHT22;23947;51.894;4.622;2023-10-08T17:43:54;17.20;42.20
38131;DHT22;23947;51.894;4.622;2023-10-08T17:46:20;17.30;43.60
38131;DHT22;23947;51.894;4.622;2023-10-08T17:48:46;17.20;44.80
38131;DHT22;23947;51.894;4.622;2023-10-08T17:51:12;17.20;47.20
38131;DHT22;23947;51.894;4.622;2023-10-08T17:53:41;17.10;49.00
38131;DHT22;23947;51.894;4.622;2023-10-08T17:56:06;17.10;49.70
38131;DHT22;23947;51.894;4.622;2023-10-08T17:58:33;17.10;51.50